sensor_id;sensor_type;location;lat;lon;timestamp;noise_LAeq;noise_LA_min;noise_LA_max;noise_LA01;noise_LA95
70454;Laerm;57915;47.174;14.680;2023-04-08T00:00:35;41.46;40.11;43.28;;
70454;Laerm;57915;47.174;14.680;2023-04-08T00:01:36;41.46;40.02;43.60;;
70454;Laerm;57915;47.174;14.680;2023-04-08T00:02:37;41.33;40.24;43.93;;
70454;Laerm;57915;47.174;14.680;2023-04-08T00:03:38;41.00;39.83;43.63;;
70454;Laerm;57915;47.174;14.680;2023-04-08T00:04:39;41.69;40.16;44.65;;
70454;Laerm;57915;47.174;14.680;2023-04-08T00:05:40;54.61;40.45;67.56;;
70454;Laerm;57915;47.174;14.680;2023-04-08T00:06:43;41.42;40.11;44.61;;
70454;Laerm;57915;47.174;14.680;2023-04-08T00:07:43;42.35;40.27;44.88;;
70454;Laerm;57915;47.174;14.680;2023-04-08T00:08:45;59.41;40.40;70.67;;
70454;Laerm;57915;47.174;14.680;2023-04-08T00:09:45;44.25;40.24;57.05;;
70454;Laerm;57915;47.174;14.680;2023-04-08T00:10:47;54.32;40.00;69.33;;
70454;Laerm;57915;47.174;14.680;2023-04-08T00:11:47;41.42;40.11;45.42;;
70454;Laerm;57915;47.174;14.680;2023-04-08T00:12:49;41.52;39.75;52.58;;
70454;Laerm;57915;47.174;14.680;2023-04-08T00:13:49;41.85;39.69;46.17;;
70454;Laerm;57915;47.174;14.680;2023-04-08T00:14:51;41.75;39.87;47.97;;
70454;Laerm;57915;47.174;14.680;2023-04-08T00:15:51;41.47;39.90;46.03;;
70454;Laerm;57915;47.174;14.680;2023-04-08T00:16:53;40.72;39.37;42.99;;
70454;Laerm;57915;47.174;14.680;2023-04-08T00:17:53;40.70;39.66;42.11;;
70454;Laerm;57915;47.174;14.680;2023-04-08T00:18:55;41.17;39.91;44.28;;
70454;Laerm;57915;47.174;14.680;2023-04-08T00:19:55;40.65;39.44;41.82;;
70454;Laerm;57915;47.174;14.680;2023-04-08T00:20:57;40.63;39.53;42.23;;
70454;Laerm;57915;47.174;14.680;2023-04-08T00:21:59;40.26;39.22;42.44;;
70454;Laerm;57915;47.174;14.680;2023-04-08T00:23:00;40.59;39.37;44.98;;
70454;Laerm;57915;47.174;14.680;2023-04-08T00:24:01;40.62;39.51;42.40;;
70454;Laerm;57915;47.174;14.680;2023-04-08T00:25:03;41.57;40.11;44.74;;
70454;Laerm;57915;47.174;14.680;2023-04-08T00:26:05;47.94;39.71;62.09;;
70454;Laerm;57915;47.174;14.680;2023-04-08T00:27:07;50.35;40.46;62.81;;
70454;Laerm;57915;47.174;14.680;2023-04-08T00:28:07;41.74;39.97;45.67;;
70454;Laerm;57915;47.174;14.680;2023-04-08T00:29:09;41.17;39.02;43.35;;
70454;Laerm;57915;47.174;14.680;2023-04-08T00:30:10;40.51;39.22;42.30;;
70454;Laerm;57915;47.174;14.680;2023-04-08T00:31:11;40.67;39.34;42.50;;
70454;Laerm;57915;47.174;14.680;2023-04-08T00:32:12;41.35;39.75;44.63;;
70454;Laerm;57915;47.174;14.680;2023-04-08T00:33:13;54.61;39.35;66.84;;
70454;Laerm;57915;47.174;14.680;2023-04-08T00:34:14;42.79;39.79;52.78;;
70454;Laerm;57915;47.174;14.680;2023-04-08T00:35:16;54.29;40.08;66.16;;
70454;Laerm;57915;47.174;14.680;2023-04-08T00:36:16;41.77;39.84;47.25;;
70454;Laerm;57915;47.174;14.680;2023-04-08T00:37:19;56.34;39.77;69.50;;
70454;Laerm;57915;47.174;14.680;2023-04-08T00:38:20;42.42;40.23;49.03;;
70454;Laerm;57915;47.174;14.680;2023-04-08T00:39:21;41.04;39.56;42.65;;
70454;Laerm;57915;47.174;14.680;2023-04-08T00:40:22;41.44;39.74;45.50;;
70454;Laerm;57915;47.174;14.680;2023-04-08T00:41:23;40.62;39.56;42.15;;
70454;Laerm;57915;47.174;14.680;2023-04-08T00:42:24;40.70;39.45;44.24;;
70454;Laerm;57915;47.174;14.680;2023-04-08T00:43:25;40.64;39.47;42.44;;
70454;Laerm;57915;47.174;14.680;2023-04-08T00:44:26;40.39;39.24;42.80;;
70454;Laerm;57915;47.174;14.680;2023-04-08T00:45:28;40.46;39.20;42.52;;
70454;Laerm;57915;47.174;14.680;2023-04-08T00:46:29;40.64;39.28;42.35;;
70454;Laerm;57915;47.174;14.680;2023-04-08T00:47:31;45.07;40.66;51.52;;
70454;Laerm;57915;47.174;14.680;2023-04-08T00:48:31;44.99;39.40;50.81;;
70454;Laerm;57915;47.174;14.680;2023-04-08T00:49:33;40.47;39.38;43.86;;
70454;Laerm;57915;47.174;14.680;2023-04-08T00:50:33;56.13;39.38;69.46;;
70454;Laerm;57915;47.174;14.680;2023-04-08T00:51:35;42.73;39.46;52.04;;
70454;Laerm;57915;47.174;14.680;2023-04-08T00:52:37;40.79;39.29;45.60;;
70454;Laerm;57915;47.174;14.680;2023-04-08T00:53:38;40.16;39.22;41.37;;
70454;Laerm;57915;47.174;14.680;2023-04-08T00:54:40;39.96;39.14;43.25;;
70454;Laerm;57915;47.174;14.680;2023-04-08T00:55:42;40.00;39.15;41.09;;
70454;Laerm;57915;47.174;14.680;2023-04-08T00:56:42;40.06;39.19;41.66;;
70454;Laerm;57915;47.174;14.680;2023-04-08T00:57:44;40.34;39.33;41.82;;
70454;Laerm;57915;47.174;14.680;2023-04-08T00:58:45;40.96;39.54;44.38;;
70454;Laerm;57915;47.174;14.680;2023-04-08T00:59:47;40.66;39.44;42.46;;
70454;Laerm;57915;47.174;14.680;2023-04-08T01:00:49;40.44;39.34;44.44;;
70454;Laerm;57915;47.174;14.680;2023-04-08T01:01:53;58.08;39.48;70.65;;
70454;Laerm;57915;47.174;14.680;2023-04-08T01:02:56;41.08;39.37;45.73;;
70454;Laerm;57915;47.174;14.680;2023-04-08T01:04:06;40.32;39.28;41.78;;
70454;Laerm;57915;47.174;14.680;2023-04-08T01:05:13;56.62;39.10;70.37;;
70454;Laerm;57915;47.174;14.680;2023-04-08T01:06:18;44.66;40.70;53.78;;
70454;Laerm;57915;47.174;14.680;2023-04-08T01:07:31;52.91;39.44;67.11;;
70454;Laerm;57915;47.174;14.680;2023-04-08T01:08:35;40.59;39.25;42.95;;
70454;Laerm;57915;47.174;14.680;2023-04-08T01:09:37;40.55;39.55;43.15;;
70454;Laerm;57915;47.174;14.680;2023-04-08T01:10:39;54.71;39.39;68.10;;
70454;Laerm;57915;47.174;14.680;2023-04-08T01:11:42;40.36;39.28;46.32;;
70454;Laerm;57915;47.174;14.680;2023-04-08T01:12:47;40.32;39.14;50.14;;
70454;Laerm;57915;47.174;14.680;2023-04-08T01:13:48;40.95;39.63;42.94;;
70454;Laerm;57915;47.174;14.680;2023-04-08T01:14:51;44.34;40.05;50.03;;
70454;Laerm;57915;47.174;14.680;2023-04-08T01:15:52;43.89;39.62;51.32;;
70454;Laerm;57915;47.174;14.680;2023-04-08T01:16:54;40.19;39.17;41.95;;
70454;Laerm;57915;47.174;14.680;2023-04-08T01:17:56;41.11;39.43;46.87;;
70454;Laerm;57915;47.174;14.680;2023-04-08T01:18:59;41.65;39.55;51.03;;
70454;Laerm;57915;47.174;14.680;2023-04-08T01:20:00;41.97;39.47;55.67;;
70454;Laerm;57915;47.174;14.680;2023-04-08T01:21:03;51.71;40.88;63.70;;
70454;Laerm;57915;47.174;14.680;2023-04-08T01:22:08;45.92;39.46;59.25;;
70454;Laerm;57915;47.174;14.680;2023-04-08T01:23:15;40.52;39.35;43.78;;
70454;Laerm;57915;47.174;14.680;2023-04-08T01:24:19;40.26;39.23;41.57;;
70454;Laerm;57915;47.174;14.680;2023-04-08T01:25:25;43.85;39.45;56.39;;
70454;Laerm;57915;47.174;14.680;2023-04-08T01:26:27;58.63;39.41;73.04;;
70454;Laerm;57915;47.174;14.680;2023-04-08T01:27:30;40.59;39.25;42.42;;
70454;Laerm;57915;47.174;14.680;2023-04-08T01:28:31;41.39;39.45;46.74;;
70454;Laerm;57915;47.174;14.680;2023-04-08T01:29:33;40.16;39.06;41.78;;
70454;Laerm;57915;47.174;14.680;2023-04-08T01:30:34;46.89;39.75;55.03;;
70454;Laerm;57915;47.174;14.680;2023-04-08T01:31:38;56.84;39.53;70.53;;
70454;Laerm;57915;47.174;14.680;2023-04-08T01:32:40;41.12;39.74;45.88;;
70454;Laerm;57915;47.174;14.680;2023-04-08T01:33:44;41.62;39.73;45.11;;
70454;Laerm;57915;47.174;14.680;2023-04-08T01:34:44;45.25;41.75;50.72;;
70454;Laerm;57915;47.174;14.680;2023-04-08T01:35:46;40.92;39.43;43.94;;
70454;Laerm;57915;47.174;14.680;2023-04-08T01:36:46;40.06;39.06;41.13;;
70454;Laerm;57915;47.174;14.680;2023-04-08T01:37:49;40.25;38.98;42.01;;
70454;Laerm;57915;47.174;14.680;2023-04-08T01:38:50;40.46;39.38;43.85;;
70454;Laerm;57915;47.174;14.680;2023-04-08T01:39:52;40.39;39.37;42.66;;
70454;Laerm;57915;47.174;14.680;2023-04-08T01:40:53;40.23;38.76;43.40;;
70454;Laerm;57915;47.174;14.680;2023-04-08T01:41:57;41.14;39.52;46.67;;
70454;Laerm;57915;47.174;14.680;2023-04-08T01:42:58;40.64;39.15;47.25;;
70454;Laerm;57915;47.174;14.680;2023-04-08T01:44:01;48.63;39.25;59.01;;
70454;Laerm;57915;47.174;14.680;2023-04-08T01:45:02;45.00;40.70;52.07;;
70454;Laerm;57915;47.174;14.680;2023-04-08T01:46:04;40.89;39.49;43.78;;
70454;Laerm;57915;47.174;14.680;2023-04-08T01:47:05;40.44;39.42;41.96;;
70454;Laerm;57915;47.174;14.680;2023-04-08T01:48:06;40.84;39.55;42.83;;
70454;Laerm;57915;47.174;14.680;2023-04-08T01:49:07;41.04;38.84;45.01;;
70454;Laerm;57915;47.174;14.680;2023-04-08T01:50:09;40.72;39.24;43.04;;
70454;Laerm;57915;47.174;14.680;2023-04-08T01:51:10;40.59;39.32;42.75;;
70454;Laerm;57915;47.174;14.680;2023-04-08T01:52:11;40.59;39.25;45.30;;
70454;Laerm;57915;47.174;14.680;2023-04-08T01:53:12;40.74;39.49;43.06;;
70454;Laerm;57915;47.174;14.680;2023-04-08T01:54:14;40.80;39.49;42.66;;
70454;Laerm;57915;47.174;14.680;2023-04-08T01:55:14;40.53;39.42;42.12;;
70454;Laerm;57915;47.174;14.680;2023-04-08T01:56:16;41.14;39.76;42.76;;
70454;Laerm;57915;47.174;14.680;2023-04-08T01:57:22;41.98;39.63;46.06;;
70454;Laerm;57915;47.174;14.680;2023-04-08T01:58:24;47.16;43.30;52.04;;
70454;Laerm;57915;47.174;14.680;2023-04-08T01:59:30;45.28;39.75;54.84;;
70454;Laerm;57915;47.174;14.680;2023-04-08T02:00:34;41.05;39.56;44.28;;
70454;Laerm;57915;47.174;14.680;2023-04-08T02:01:36;40.51;39.16;42.52;;
70454;Laerm;57915;47.174;14.680;2023-04-08T02:02:37;40.64;39.45;43.38;;
70454;Laerm;57915;47.174;14.680;2023-04-08T02:03:40;41.02;39.64;43.64;;
70454;Laerm;57915;47.174;14.680;2023-04-08T02:04:42;40.43;39.25;42.11;;
70454;Laerm;57915;47.174;14.680;2023-04-08T02:05:43;40.44;39.31;43.10;;
70454;Laerm;57915;47.174;14.680;2023-04-08T02:06:44;41.80;39.63;46.53;;
70454;Laerm;57915;47.174;14.680;2023-04-08T02:07:46;57.38;39.75;68.70;;
70454;Laerm;57915;47.174;14.680;2023-04-08T02:08:47;46.73;39.36;59.93;;
70454;Laerm;57915;47.174;14.680;2023-04-08T02:09:48;54.43;39.52;67.40;;
70454;Laerm;57915;47.174;14.680;2023-04-08T02:10:50;52.03;39.80;64.61;;
70454;Laerm;57915;47.174;14.680;2023-04-08T02:11:50;49.26;39.46;59.61;;
70454;Laerm;57915;47.174;14.680;2023-04-08T02:12:53;48.40;39.05;56.59;;
70454;Laerm;57915;47.174;14.680;2023-04-08T02:13:54;41.14;39.56;44.56;;
70454;Laerm;57915;47.174;14.680;2023-04-08T02:14:56;40.15;38.97;42.44;;
70454;Laerm;57915;47.174;14.680;2023-04-08T02:15:58;40.46;39.23;44.75;;
70454;Laerm;57915;47.174;14.680;2023-04-08T02:17:04;40.19;38.99;42.77;;
70454;Laerm;57915;47.174;14.680;2023-04-08T02:18:10;40.36;39.27;41.90;;
70454;Laerm;57915;47.174;14.680;2023-04-08T02:19:14;40.73;38.52;44.95;;
70454;Laerm;57915;47.174;14.680;2023-04-08T02:20:16;56.64;39.29;70.64;;
70454;Laerm;57915;47.174;14.680;2023-04-08T02:21:18;41.53;39.01;46.64;;
70454;Laerm;57915;47.174;14.680;2023-04-08T02:22:22;45.36;40.33;54.37;;
70454;Laerm;57915;47.174;14.680;2023-04-08T02:23:26;46.45;39.65;52.81;;
70454;Laerm;57915;47.174;14.680;2023-04-08T02:24:28;40.62;39.33;42.01;;
70454;Laerm;57915;47.174;14.680;2023-04-08T02:25:30;41.38;39.44;48.87;;
70454;Laerm;57915;47.174;14.680;2023-04-08T02:26:33;40.73;39.67;42.61;;
70454;Laerm;57915;47.174;14.680;2023-04-08T02:27:36;40.79;39.65;42.37;;
70454;Laerm;57915;47.174;14.680;2023-04-08T02:28:40;43.24;39.59;53.34;;
70454;Laerm;57915;47.174;14.680;2023-04-08T02:29:42;56.54;39.84;69.52;;
70454;Laerm;57915;47.174;14.680;2023-04-08T02:30:46;41.55;39.82;44.07;;
70454;Laerm;57915;47.174;14.680;2023-04-08T02:31:48;58.19;39.52;69.17;;
70454;Laerm;57915;47.174;14.680;2023-04-08T02:32:50;40.36;39.18;44.82;;
70454;Laerm;57915;47.174;14.680;2023-04-08T02:33:52;40.31;39.39;41.48;;
70454;Laerm;57915;47.174;14.680;2023-04-08T02:34:53;43.30;39.51;54.21;;
70454;Laerm;57915;47.174;14.680;2023-04-08T02:35:55;52.51;39.27;64.80;;
70454;Laerm;57915;47.174;14.680;2023-04-08T02:36:56;40.59;39.28;46.30;;
70454;Laerm;57915;47.174;14.680;2023-04-08T02:37:58;40.61;39.51;42.12;;
70454;Laerm;57915;47.174;14.680;2023-04-08T02:38:58;54.99;39.22;67.06;;
70454;Laerm;57915;47.174;14.680;2023-04-08T02:40:00;40.56;38.38;47.80;;
70454;Laerm;57915;47.174;14.680;2023-04-08T02:41:01;53.53;39.34;66.85;;
70454;Laerm;57915;47.174;14.680;2023-04-08T02:42:03;40.53;39.34;42.84;;
70454;Laerm;57915;47.174;14.680;2023-04-08T02:43:03;41.96;39.18;52.85;;
70454;Laerm;57915;47.174;14.680;2023-04-08T02:44:06;40.65;39.33;43.27;;
70454;Laerm;57915;47.174;14.680;2023-04-08T02:45:07;54.22;40.75;66.35;;
70454;Laerm;57915;47.174;14.680;2023-04-08T02:46:09;47.24;42.22;51.55;;
70454;Laerm;57915;47.174;14.680;2023-04-08T02:47:10;57.43;41.26;69.41;;
70454;Laerm;57915;47.174;14.680;2023-04-08T02:48:11;41.43;39.44;45.42;;
70454;Laerm;57915;47.174;14.680;2023-04-08T02:49:12;43.48;37.32;54.73;;
70454;Laerm;57915;47.174;14.680;2023-04-08T02:50:13;57.82;39.67;71.16;;
70454;Laerm;57915;47.174;14.680;2023-04-08T02:51:14;43.48;40.39;51.93;;
70454;Laerm;57915;47.174;14.680;2023-04-08T02:52:16;44.35;39.61;53.17;;
70454;Laerm;57915;47.174;14.680;2023-04-08T02:53:16;41.35;38.11;51.45;;
70454;Laerm;57915;47.174;14.680;2023-04-08T02:54:18;41.98;38.56;53.90;;
70454;Laerm;57915;47.174;14.680;2023-04-08T02:55:18;42.27;39.62;52.61;;
70454;Laerm;57915;47.174;14.680;2023-04-08T02:56:20;42.79;40.17;55.07;;
70454;Laerm;57915;47.174;14.680;2023-04-08T02:57:21;42.65;39.94;52.91;;
70454;Laerm;57915;47.174;14.680;2023-04-08T02:58:23;59.10;40.20;73.55;;
70454;Laerm;57915;47.174;14.680;2023-04-08T02:59:25;42.02;39.10;54.62;;
70454;Laerm;57915;47.174;14.680;2023-04-08T03:00:26;42.76;39.84;55.98;;
70454;Laerm;57915;47.174;14.680;2023-04-08T03:01:28;41.93;39.15;55.19;;
70454;Laerm;57915;47.174;14.680;2023-04-08T03:02:29;42.72;39.89;54.73;;
70454;Laerm;57915;47.174;14.680;2023-04-08T03:03:30;42.69;39.92;53.29;;
70454;Laerm;57915;47.174;14.680;2023-04-08T03:04:31;42.83;39.98;55.47;;
70454;Laerm;57915;47.174;14.680;2023-04-08T03:05:32;42.91;39.95;53.47;;
70454;Laerm;57915;47.174;14.680;2023-04-08T03:06:34;43.24;40.09;53.84;;
70454;Laerm;57915;47.174;14.680;2023-04-08T03:07:34;42.49;39.67;52.18;;
70454;Laerm;57915;47.174;14.680;2023-04-08T03:08:36;50.48;39.53;66.23;;
70454;Laerm;57915;47.174;14.680;2023-04-08T03:09:37;53.09;39.37;68.13;;
70454;Laerm;57915;47.174;14.680;2023-04-08T03:10:39;43.34;39.95;55.51;;
70454;Laerm;57915;47.174;14.680;2023-04-08T03:11:39;55.34;40.31;66.13;;
70454;Laerm;57915;47.174;14.680;2023-04-08T03:12:41;57.47;40.13;70.65;;
70454;Laerm;57915;47.174;14.680;2023-04-08T03:13:41;42.46;39.74;51.06;;
70454;Laerm;57915;47.174;14.680;2023-04-08T03:14:44;43.24;39.51;54.59;;
70454;Laerm;57915;47.174;14.680;2023-04-08T03:15:45;42.77;39.25;56.25;;
70454;Laerm;57915;47.174;14.680;2023-04-08T03:16:46;50.27;39.78;62.30;;
70454;Laerm;57915;47.174;14.680;2023-04-08T03:17:47;46.09;41.09;63.86;;
70454;Laerm;57915;47.174;14.680;2023-04-08T03:18:48;53.43;39.96;65.58;;
70454;Laerm;57915;47.174;14.680;2023-04-08T03:19:49;42.86;39.64;54.93;;
70454;Laerm;57915;47.174;14.680;2023-04-08T03:20:51;43.51;39.89;50.85;;
70454;Laerm;57915;47.174;14.680;2023-04-08T03:21:51;54.74;40.33;67.59;;
70454;Laerm;57915;47.174;14.680;2023-04-08T03:22:53;48.29;39.56;68.06;;
70454;Laerm;57915;47.174;14.680;2023-04-08T03:23:53;43.47;39.51;56.04;;
70454;Laerm;57915;47.174;14.680;2023-04-08T03:24:55;60.58;39.74;73.04;;
70454;Laerm;57915;47.174;14.680;2023-04-08T03:25:55;45.22;40.21;57.11;;
70454;Laerm;57915;47.174;14.680;2023-04-08T03:26:57;44.14;40.74;52.76;;
70454;Laerm;57915;47.174;14.680;2023-04-08T03:27:57;43.55;39.96;54.88;;
70454;Laerm;57915;47.174;14.680;2023-04-08T03:28:59;55.58;39.56;64.87;;
70454;Laerm;57915;47.174;14.680;2023-04-08T03:30:01;60.52;39.54;73.97;;
70454;Laerm;57915;47.174;14.680;2023-04-08T03:31:03;45.80;40.75;57.63;;
70454;Laerm;57915;47.174;14.680;2023-04-08T03:32:04;51.13;40.10;61.77;;
70454;Laerm;57915;47.174;14.680;2023-04-08T03:33:05;57.51;40.39;70.97;;
70454;Laerm;57915;47.174;14.680;2023-04-08T03:34:07;61.07;42.27;75.12;;
70454;Laerm;57915;47.174;14.680;2023-04-08T03:35:08;58.80;42.57;73.11;;
70454;Laerm;57915;47.174;14.680;2023-04-08T03:36:09;58.01;40.03;71.27;;
70454;Laerm;57915;47.174;14.680;2023-04-08T03:37:11;57.95;40.25;70.22;;
70454;Laerm;57915;47.174;14.680;2023-04-08T03:38:11;54.46;40.25;66.84;;
70454;Laerm;57915;47.174;14.680;2023-04-08T03:39:13;60.17;42.91;69.77;;
70454;Laerm;57915;47.174;14.680;2023-04-08T03:40:13;58.01;46.94;69.50;;
70454;Laerm;57915;47.174;14.680;2023-04-08T03:41:15;51.28;42.56;62.62;;
70454;Laerm;57915;47.174;14.680;2023-04-08T03:42:15;54.63;41.59;65.65;;
70454;Laerm;57915;47.174;14.680;2023-04-08T03:43:17;47.59;41.66;60.03;;
70454;Laerm;57915;47.174;14.680;2023-04-08T03:44:21;46.24;40.29;57.10;;
70454;Laerm;57915;47.174;14.680;2023-04-08T03:45:23;45.75;40.56;63.26;;
70454;Laerm;57915;47.174;14.680;2023-04-08T03:46:24;49.09;41.11;63.53;;
70454;Laerm;57915;47.174;14.680;2023-04-08T03:47:25;56.07;40.77;68.44;;
70454;Laerm;57915;47.174;14.680;2023-04-08T03:48:26;55.92;41.45;68.32;;
70454;Laerm;57915;47.174;14.680;2023-04-08T03:49:28;57.14;41.66;67.60;;
70454;Laerm;57915;47.174;14.680;2023-04-08T03:50:28;49.54;44.85;61.80;;
70454;Laerm;57915;47.174;14.680;2023-04-08T03:51:30;58.62;41.82;71.65;;
70454;Laerm;57915;47.174;14.680;2023-04-08T03:52:31;59.31;41.45;72.85;;
70454;Laerm;57915;47.174;14.680;2023-04-08T03:53:32;49.69;41.97;61.11;;
70454;Laerm;57915;47.174;14.680;2023-04-08T03:54:33;50.36;43.55;65.31;;
70454;Laerm;57915;47.174;14.680;2023-04-08T03:55:34;57.88;41.93;67.97;;
70454;Laerm;57915;47.174;14.680;2023-04-08T03:56:36;47.61;41.30;60.85;;
70454;Laerm;57915;47.174;14.680;2023-04-08T03:57:36;58.69;41.40;71.78;;
70454;Laerm;57915;47.174;14.680;2023-04-08T03:58:38;51.61;41.72;67.62;;
70454;Laerm;57915;47.174;14.680;2023-04-08T03:59:38;60.14;42.64;74.54;;
70454;Laerm;57915;47.174;14.680;2023-04-08T04:00:41;55.34;42.31;69.63;;
70454;Laerm;57915;47.174;14.680;2023-04-08T04:01:42;50.19;41.20;69.22;;
70454;Laerm;57915;47.174;14.680;2023-04-08T04:02:43;46.30;41.43;56.80;;
70454;Laerm;57915;47.174;14.680;2023-04-08T04:03:44;58.35;43.02;67.54;;
70454;Laerm;57915;47.174;14.680;2023-04-08T04:04:45;44.70;40.88;58.44;;
70454;Laerm;57915;47.174;14.680;2023-04-08T04:05:46;55.82;41.11;67.66;;
70454;Laerm;57915;47.174;14.680;2023-04-08T04:06:47;45.07;41.37;54.99;;
70454;Laerm;57915;47.174;14.680;2023-04-08T04:07:48;54.00;41.10;65.94;;
70454;Laerm;57915;47.174;14.680;2023-04-08T04:08:49;47.80;40.64;66.27;;
70454;Laerm;57915;47.174;14.680;2023-04-08T04:09:52;48.28;41.13;63.53;;
70454;Laerm;57915;47.174;14.680;2023-04-08T04:10:57;45.62;40.68;55.11;;
70454;Laerm;57915;47.174;14.680;2023-04-08T04:11:57;47.13;41.15;57.12;;
70454;Laerm;57915;47.174;14.680;2023-04-08T04:12:59;54.43;43.04;65.96;;
70454;Laerm;57915;47.174;14.680;2023-04-08T04:14:00;59.95;40.90;70.82;;
70454;Laerm;57915;47.174;14.680;2023-04-08T04:15:01;58.63;41.09;71.10;;
70454;Laerm;57915;47.174;14.680;2023-04-08T04:16:04;55.25;40.67;66.76;;
70454;Laerm;57915;47.174;14.680;2023-04-08T04:17:05;47.02;40.63;58.30;;
70454;Laerm;57915;47.174;14.680;2023-04-08T04:18:06;44.86;40.01;55.08;;
70454;Laerm;57915;47.174;14.680;2023-04-08T04:19:07;52.56;40.38;66.54;;
70454;Laerm;57915;47.174;14.680;2023-04-08T04:20:08;61.24;45.61;70.31;;
70454;Laerm;57915;47.174;14.680;2023-04-08T04:21:10;47.98;40.80;61.55;;
70454;Laerm;57915;47.174;14.680;2023-04-08T04:22:10;48.88;40.06;70.43;;
70454;Laerm;57915;47.174;14.680;2023-04-08T04:23:12;45.07;40.20;56.17;;
70454;Laerm;57915;47.174;14.680;2023-04-08T04:24:12;55.83;40.06;68.39;;
70454;Laerm;57915;47.174;14.680;2023-04-08T04:25:14;56.55;40.28;69.83;;
70454;Laerm;57915;47.174;14.680;2023-04-08T04:26:14;42.50;40.02;47.57;;
70454;Laerm;57915;47.174;14.680;2023-04-08T04:27:16;53.66;40.15;65.70;;
70454;Laerm;57915;47.174;14.680;2023-04-08T04:28:17;54.89;39.98;68.07;;
70454;Laerm;57915;47.174;14.680;2023-04-08T04:29:18;43.57;40.09;52.24;;
70454;Laerm;57915;47.174;14.680;2023-04-08T04:30:19;45.51;39.46;57.28;;
70454;Laerm;57915;47.174;14.680;2023-04-08T04:31:22;58.54;42.49;66.85;;
70454;Laerm;57915;47.174;14.680;2023-04-08T04:32:25;51.94;40.43;64.70;;
70454;Laerm;57915;47.174;14.680;2023-04-08T04:33:26;49.80;40.11;64.17;;
70454;Laerm;57915;47.174;14.680;2023-04-08T04:34:27;50.53;40.04;64.10;;
70454;Laerm;57915;47.174;14.680;2023-04-08T04:35:28;49.89;40.42;63.65;;
70454;Laerm;57915;47.174;14.680;2023-04-08T04:36:29;49.03;40.17;63.55;;
70454;Laerm;57915;47.174;14.680;2023-04-08T04:37:31;57.43;40.95;69.29;;
70454;Laerm;57915;47.174;14.680;2023-04-08T04:38:31;47.80;40.41;60.55;;
70454;Laerm;57915;47.174;14.680;2023-04-08T04:39:33;48.91;40.24;65.72;;
70454;Laerm;57915;47.174;14.680;2023-04-08T04:40:33;50.39;40.29;63.68;;
70454;Laerm;57915;47.174;14.680;2023-04-08T04:41:35;54.83;40.60;66.26;;
70454;Laerm;57915;47.174;14.680;2023-04-08T04:42:39;46.28;40.23;64.10;;
70454;Laerm;57915;47.174;14.680;2023-04-08T04:43:41;46.17;39.47;63.59;;
70454;Laerm;57915;47.174;14.680;2023-04-08T04:44:41;55.15;40.66;67.19;;
70454;Laerm;57915;47.174;14.680;2023-04-08T04:45:43;47.31;40.83;63.62;;
70454;Laerm;57915;47.174;14.680;2023-04-08T04:46:45;56.17;40.40;67.87;;
70454;Laerm;57915;47.174;14.680;2023-04-08T04:47:47;56.03;42.02;67.10;;
70454;Laerm;57915;47.174;14.680;2023-04-08T04:48:47;46.66;40.68;61.65;;
70454;Laerm;57915;47.174;14.680;2023-04-08T04:49:49;46.61;40.47;63.72;;
70454;Laerm;57915;47.174;14.680;2023-04-08T04:50:53;54.95;41.51;67.53;;
70454;Laerm;57915;47.174;14.680;2023-04-08T04:51:55;56.32;40.97;69.05;;
70454;Laerm;57915;47.174;14.680;2023-04-08T04:52:55;62.62;41.76;74.59;;
70454;Laerm;57915;47.174;14.680;2023-04-08T04:53:57;47.77;40.63;62.92;;
70454;Laerm;57915;47.174;14.680;2023-04-08T04:54:57;58.99;41.57;71.18;;
70454;Laerm;57915;47.174;14.680;2023-04-08T04:55:59;51.76;41.04;64.10;;
70454;Laerm;57915;47.174;14.680;2023-04-08T04:57:00;54.62;40.54;67.48;;
70454;Laerm;57915;47.174;14.680;2023-04-08T04:58:02;43.26;40.03;60.97;;
70454;Laerm;57915;47.174;14.680;2023-04-08T04:59:02;47.04;40.41;55.17;;
70454;Laerm;57915;47.174;14.680;2023-04-08T05:00:05;54.23;40.98;67.92;;
70454;Laerm;57915;47.174;14.680;2023-04-08T05:01:07;53.03;41.19;65.36;;
70454;Laerm;57915;47.174;14.680;2023-04-08T05:02:10;57.18;40.80;69.88;;
70454;Laerm;57915;47.174;14.680;2023-04-08T05:03:11;50.32;40.61;69.29;;
70454;Laerm;57915;47.174;14.680;2023-04-08T05:04:15;56.99;41.11;69.87;;
70454;Laerm;57915;47.174;14.680;2023-04-08T05:05:17;49.17;40.54;66.31;;
70454;Laerm;57915;47.174;14.680;2023-04-08T05:06:17;55.04;41.05;65.21;;
70454;Laerm;57915;47.174;14.680;2023-04-08T05:07:19;57.53;41.14;68.90;;
70454;Laerm;57915;47.174;14.680;2023-04-08T05:08:20;55.82;40.43;69.44;;
70454;Laerm;57915;47.174;14.680;2023-04-08T05:09:22;45.99;40.77;57.20;;
70454;Laerm;57915;47.174;14.680;2023-04-08T05:10:22;58.01;42.54;71.63;;
70454;Laerm;57915;47.174;14.680;2023-04-08T05:11:24;48.23;41.41;66.99;;
70454;Laerm;57915;47.174;14.680;2023-04-08T05:12:24;58.19;40.83;68.21;;
70454;Laerm;57915;47.174;14.680;2023-04-08T05:13:26;48.65;40.81;64.62;;
70454;Laerm;57915;47.174;14.680;2023-04-08T05:14:27;56.55;41.26;69.08;;
70454;Laerm;57915;47.174;14.680;2023-04-08T05:15:29;56.31;40.83;67.41;;
70454;Laerm;57915;47.174;14.680;2023-04-08T05:16:30;57.44;41.06;68.49;;
70454;Laerm;57915;47.174;14.680;2023-04-08T05:17:32;49.44;43.39;58.11;;
70454;Laerm;57915;47.174;14.680;2023-04-08T05:18:33;60.97;43.51;72.66;;
70454;Laerm;57915;47.174;14.680;2023-04-08T05:19:34;53.18;42.54;67.73;;
70454;Laerm;57915;47.174;14.680;2023-04-08T05:20:35;54.09;43.19;69.40;;
70454;Laerm;57915;47.174;14.680;2023-04-08T05:21:36;58.62;43.82;67.29;;
70454;Laerm;57915;47.174;14.680;2023-04-08T05:22:37;61.00;42.38;71.69;;
70454;Laerm;57915;47.174;14.680;2023-04-08T05:23:43;59.04;41.79;68.87;;
70454;Laerm;57915;47.174;14.680;2023-04-08T05:24:44;56.71;41.32;69.43;;
70454;Laerm;57915;47.174;14.680;2023-04-08T05:25:45;47.66;40.71;66.53;;
70454;Laerm;57915;47.174;14.680;2023-04-08T05:26:46;58.42;41.99;70.07;;
70454;Laerm;57915;47.174;14.680;2023-04-08T05:27:51;45.40;40.87;59.37;;
70454;Laerm;57915;47.174;14.680;2023-04-08T05:28:52;57.07;41.30;70.37;;
70454;Laerm;57915;47.174;14.680;2023-04-08T05:29:53;60.79;43.01;71.92;;
70454;Laerm;57915;47.174;14.680;2023-04-08T05:30:54;58.39;41.89;70.43;;
70454;Laerm;57915;47.174;14.680;2023-04-08T05:31:55;55.67;42.22;66.69;;
70454;Laerm;57915;47.174;14.680;2023-04-08T05:32:57;64.71;50.97;73.43;;
70454;Laerm;57915;47.174;14.680;2023-04-08T05:33:59;57.28;43.28;70.02;;
70454;Laerm;57915;47.174;14.680;2023-04-08T05:35:00;56.36;42.70;68.55;;
70454;Laerm;57915;47.174;14.680;2023-04-08T05:36:02;61.51;43.41;76.00;;
70454;Laerm;57915;47.174;14.680;2023-04-08T05:37:03;59.95;41.99;70.82;;
70454;Laerm;57915;47.174;14.680;2023-04-08T05:38:04;53.07;42.02;63.55;;
70454;Laerm;57915;47.174;14.680;2023-04-08T05:39:05;58.09;42.31;66.87;;
70454;Laerm;57915;47.174;14.680;2023-04-08T05:40:07;49.44;42.10;60.12;;